sensor_id;sensor_type;location;lat;lon;timestamp;P1;durP1;ratioP1;P2;durP2;ratioP2
11453;SDS011;5783;55.174;61.310;2022-07-29T00:01:41;5.17;;;4.30;;
11453;SDS011;5783;55.174;61.310;2022-07-29T00:04:11;5.17;;;4.43;;
11453;SDS011;5783;55.174;61.310;2022-07-29T00:06:40;5.30;;;4.60;;
11453;SDS011;5783;55.174;61.310;2022-07-29T00:09:09;4.97;;;4.13;;
11453;SDS011;5783;55.174;61.310;2022-07-29T00:11:38;4.70;;;3.93;;
11453;SDS011;5783;55.174;61.310;2022-07-29T00:14:08;6.50;;;4.50;;
11453;SDS011;5783;55.174;61.310;2022-07-29T00:16:38;5.80;;;4.10;;
11453;SDS011;5783;55.174;61.310;2022-07-29T00:19:07;5.23;;;4.40;;
11453;SDS011;5783;55.174;61.310;2022-07-29T00:21:36;7.60;;;4.20;;
11453;SDS011;5783;55.174;61.310;2022-07-29T00:24:05;5.87;;;4.13;;
11453;SDS011;5783;55.174;61.310;2022-07-29T00:26:35;4.97;;;3.97;;
11453;SDS011;5783;55.174;61.310;2022-07-29T00:29:04;5.93;;;4.30;;
11453;SDS011;5783;55.174;61.310;2022-07-29T00:31:33;5.90;;;4.10;;
11453;SDS011;5783;55.174;61.310;2022-07-29T00:34:02;6.43;;;4.27;;
11453;SDS011;5783;55.174;61.310;2022-07-29T00:36:33;6.67;;;4.47;;
11453;SDS011;5783;55.174;61.310;2022-07-29T00:39:02;7.03;;;4.60;;
11453;SDS011;5783;55.174;61.310;2022-07-29T00:41:31;7.00;;;4.50;;
11453;SDS011;5783;55.174;61.310;2022-07-29T00:44:01;5.13;;;4.13;;
11453;SDS011;5783;55.174;61.310;2022-07-29T00:46:30;7.00;;;4.70;;
11453;SDS011;5783;55.174;61.310;2022-07-29T00:48:59;5.83;;;4.13;;
11453;SDS011;5783;55.174;61.310;2022-07-29T00:51:28;5.60;;;4.23;;
11453;SDS011;5783;55.174;61.310;2022-07-29T00:53:58;5.30;;;4.17;;
11453;SDS011;5783;55.174;61.310;2022-07-29T00:56:27;6.80;;;4.10;;
11453;SDS011;5783;55.174;61.310;2022-07-29T00:58:59;5.87;;;4.23;;
11453;SDS011;5783;55.174;61.310;2022-07-29T01:01:28;4.77;;;4.10;;
11453;SDS011;5783;55.174;61.310;2022-07-29T01:03:57;4.60;;;3.97;;
11453;SDS011;5783;55.174;61.310;2022-07-29T01:06:27;4.63;;;3.90;;
11453;SDS011;5783;55.174;61.310;2022-07-29T01:08:56;5.37;;;4.27;;
11453;SDS011;5783;55.174;61.310;2022-07-29T01:11:26;5.67;;;3.70;;
11453;SDS011;5783;55.174;61.310;2022-07-29T01:13:56;4.30;;;3.90;;
11453;SDS011;5783;55.174;61.310;2022-07-29T01:16:28;6.73;;;4.50;;
11453;SDS011;5783;55.174;61.310;2022-07-29T01:19:00;6.93;;;4.23;;
11453;SDS011;5783;55.174;61.310;2022-07-29T01:30:21;5.23;;;3.57;;
11453;SDS011;5783;55.174;61.310;2022-07-29T01:32:54;5.40;;;4.00;;
11453;SDS011;5783;55.174;61.310;2022-07-29T01:46:29;5.57;;;3.87;;
11453;SDS011;5783;55.174;61.310;2022-07-29T01:49:31;5.43;;;3.57;;
11453;SDS011;5783;55.174;61.310;2022-07-29T01:51:51;4.27;;;3.53;;
11453;SDS011;5783;55.174;61.310;2022-07-29T01:54:41;5.27;;;3.83;;
11453;SDS011;5783;55.174;61.310;2022-07-29T01:57:31;5.10;;;4.10;;
11453;SDS011;5783;55.174;61.310;2022-07-29T02:00:02;4.27;;;3.80;;
11453;SDS011;5783;55.174;61.310;2022-07-29T02:02:33;5.77;;;3.83;;
11453;SDS011;5783;55.174;61.310;2022-07-29T02:05:03;4.83;;;3.77;;
11453;SDS011;5783;55.174;61.310;2022-07-29T02:07:35;4.60;;;3.50;;
11453;SDS011;5783;55.174;61.310;2022-07-29T02:10:05;5.20;;;3.93;;
11453;SDS011;5783;55.174;61.310;2022-07-29T02:12:38;3.93;;;3.47;;
11453;SDS011;5783;55.174;61.310;2022-07-29T02:15:12;5.73;;;4.10;;
11453;SDS011;5783;55.174;61.310;2022-07-29T02:20:33;3.63;;;3.33;;
11453;SDS011;5783;55.174;61.310;2022-07-29T02:23:03;5.10;;;3.60;;
11453;SDS011;5783;55.174;61.310;2022-07-29T02:25:34;4.33;;;3.60;;
11453;SDS011;5783;55.174;61.310;2022-07-29T02:28:04;4.53;;;3.60;;
11453;SDS011;5783;55.174;61.310;2022-07-29T02:30:36;5.47;;;3.97;;
11453;SDS011;5783;55.174;61.310;2022-07-29T02:33:08;5.33;;;3.70;;
11453;SDS011;5783;55.174;61.310;2022-07-29T02:35:39;4.77;;;3.53;;
11453;SDS011;5783;55.174;61.310;2022-07-29T02:38:12;5.53;;;3.57;;
11453;SDS011;5783;55.174;61.310;2022-07-29T02:41:07;4.40;;;3.77;;
11453;SDS011;5783;55.174;61.310;2022-07-29T02:43:33;5.73;;;4.10;;
11453;SDS011;5783;55.174;61.310;2022-07-29T02:46:04;5.20;;;3.93;;
11453;SDS011;5783;55.174;61.310;2022-07-29T02:53:59;4.20;;;3.47;;
11453;SDS011;5783;55.174;61.310;2022-07-29T02:56:31;4.17;;;3.67;;
11453;SDS011;5783;55.174;61.310;2022-07-29T02:59:05;6.93;;;3.80;;
11453;SDS011;5783;55.174;61.310;2022-07-29T03:01:35;4.17;;;3.70;;
11453;SDS011;5783;55.174;61.310;2022-07-29T03:04:09;4.93;;;3.97;;
11453;SDS011;5783;55.174;61.310;2022-07-29T03:06:40;4.67;;;3.80;;
11453;SDS011;5783;55.174;61.310;2022-07-29T03:09:11;5.30;;;3.83;;
11453;SDS011;5783;55.174;61.310;2022-07-29T03:11:41;4.37;;;3.53;;
11453;SDS011;5783;55.174;61.310;2022-07-29T03:14:12;4.27;;;3.30;;
11453;SDS011;5783;55.174;61.310;2022-07-29T03:16:42;4.80;;;3.87;;
11453;SDS011;5783;55.174;61.310;2022-07-29T03:19:11;6.83;;;3.87;;
11453;SDS011;5783;55.174;61.310;2022-07-29T03:21:41;5.30;;;3.97;;
11453;SDS011;5783;55.174;61.310;2022-07-29T03:24:22;4.27;;;3.63;;
11453;SDS011;5783;55.174;61.310;2022-07-29T03:27:01;5.37;;;3.97;;
11453;SDS011;5783;55.174;61.310;2022-07-29T03:29:31;4.63;;;3.30;;
11453;SDS011;5783;55.174;61.310;2022-07-29T03:32:02;5.50;;;3.10;;
11453;SDS011;5783;55.174;61.310;2022-07-29T03:34:33;5.03;;;3.70;;
11453;SDS011;5783;55.174;61.310;2022-07-29T03:37:04;5.23;;;3.90;;
11453;SDS011;5783;55.174;61.310;2022-07-29T03:39:36;4.47;;;3.37;;
11453;SDS011;5783;55.174;61.310;2022-07-29T03:42:06;5.40;;;3.60;;
11453;SDS011;5783;55.174;61.310;2022-07-29T03:44:38;6.57;;;3.70;;
11453;SDS011;5783;55.174;61.310;2022-07-29T03:47:11;5.77;;;3.40;;
11453;SDS011;5783;55.174;61.310;2022-07-29T03:49:42;4.77;;;3.60;;
11453;SDS011;5783;55.174;61.310;2022-07-29T03:52:14;4.63;;;3.37;;
11453;SDS011;5783;55.174;61.310;2022-07-29T03:54:43;4.13;;;3.17;;
11453;SDS011;5783;55.174;61.310;2022-07-29T03:57:13;5.07;;;3.37;;
11453;SDS011;5783;55.174;61.310;2022-07-29T03:59:44;4.83;;;3.60;;
11453;SDS011;5783;55.174;61.310;2022-07-29T04:02:14;4.67;;;3.30;;
11453;SDS011;5783;55.174;61.310;2022-07-29T04:04:44;5.30;;;3.70;;
11453;SDS011;5783;55.174;61.310;2022-07-29T04:07:14;5.23;;;3.70;;
11453;SDS011;5783;55.174;61.310;2022-07-29T04:09:43;5.20;;;3.33;;
11453;SDS011;5783;55.174;61.310;2022-07-29T04:12:12;5.60;;;3.43;;
11453;SDS011;5783;55.174;61.310;2022-07-29T04:14:41;5.67;;;3.33;;
11453;SDS011;5783;55.174;61.310;2022-07-29T04:17:10;5.77;;;3.50;;
11453;SDS011;5783;55.174;61.310;2022-07-29T04:19:41;5.60;;;3.73;;
11453;SDS011;5783;55.174;61.310;2022-07-29T04:22:10;5.23;;;3.63;;
11453;SDS011;5783;55.174;61.310;2022-07-29T04:24:39;6.10;;;3.80;;
11453;SDS011;5783;55.174;61.310;2022-07-29T04:27:08;4.57;;;3.43;;
11453;SDS011;5783;55.174;61.310;2022-07-29T04:29:37;4.30;;;3.60;;
11453;SDS011;5783;55.174;61.310;2022-07-29T04:32:06;5.43;;;3.77;;
11453;SDS011;5783;55.174;61.310;2022-07-29T04:34:35;4.90;;;4.07;;
11453;SDS011;5783;55.174;61.310;2022-07-29T04:37:05;5.10;;;3.90;;
11453;SDS011;5783;55.174;61.310;2022-07-29T04:39:34;7.90;;;4.10;;
11453;SDS011;5783;55.174;61.310;2022-07-29T04:42:04;6.43;;;4.13;;
11453;SDS011;5783;55.174;61.310;2022-07-29T04:44:33;7.03;;;4.27;;
11453;SDS011;5783;55.174;61.310;2022-07-29T04:47:02;7.13;;;4.10;;
11453;SDS011;5783;55.174;61.310;2022-07-29T04:49:31;7.87;;;4.30;;
11453;SDS011;5783;55.174;61.310;2022-07-29T04:52:01;8.40;;;5.03;;
11453;SDS011;5783;55.174;61.310;2022-07-29T04:54:30;7.43;;;4.80;;
11453;SDS011;5783;55.174;61.310;2022-07-29T04:56:59;8.17;;;4.70;;
11453;SDS011;5783;55.174;61.310;2022-07-29T04:59:28;7.20;;;4.70;;
11453;SDS011;5783;55.174;61.310;2022-07-29T05:01:57;8.83;;;5.30;;
11453;SDS011;5783;55.174;61.310;2022-07-29T05:04:26;7.70;;;4.90;;
11453;SDS011;5783;55.174;61.310;2022-07-29T05:06:56;9.13;;;5.07;;
11453;SDS011;5783;55.174;61.310;2022-07-29T05:09:25;8.10;;;5.07;;
11453;SDS011;5783;55.174;61.310;2022-07-29T05:11:54;12.77;;;5.90;;
11453;SDS011;5783;55.174;61.310;2022-07-29T05:14:23;11.93;;;6.20;;
11453;SDS011;5783;55.174;61.310;2022-07-29T05:16:52;12.87;;;5.60;;
11453;SDS011;5783;55.174;61.310;2022-07-29T05:19:22;9.53;;;5.60;;
11453;SDS011;5783;55.174;61.310;2022-07-29T05:21:52;8.93;;;5.67;;
11453;SDS011;5783;55.174;61.310;2022-07-29T05:24:40;8.67;;;5.27;;
11453;SDS011;5783;55.174;61.310;2022-07-29T05:27:09;9.77;;;5.20;;
11453;SDS011;5783;55.174;61.310;2022-07-29T05:29:39;10.40;;;5.60;;
11453;SDS011;5783;55.174;61.310;2022-07-29T05:32:08;9.23;;;5.60;;
11453;SDS011;5783;55.174;61.310;2022-07-29T05:34:38;10.10;;;5.03;;
11453;SDS011;5783;55.174;61.310;2022-07-29T05:37:07;7.50;;;4.83;;
11453;SDS011;5783;55.174;61.310;2022-07-29T05:39:38;12.97;;;4.57;;
11453;SDS011;5783;55.174;61.310;2022-07-29T05:42:08;11.10;;;4.97;;
11453;SDS011;5783;55.174;61.310;2022-07-29T05:44:39;12.43;;;4.63;;
11453;SDS011;5783;55.174;61.310;2022-07-29T05:47:08;10.73;;;5.20;;
11453;SDS011;5783;55.174;61.310;2022-07-29T05:49:37;10.73;;;4.90;;
11453;SDS011;5783;55.174;61.310;2022-07-29T05:52:06;7.80;;;4.70;;
11453;SDS011;5783;55.174;61.310;2022-07-29T05:54:36;11.30;;;5.20;;
11453;SDS011;5783;55.174;61.310;2022-07-29T05:57:06;11.20;;;5.07;;
11453;SDS011;5783;55.174;61.310;2022-07-29T06:02:06;12.30;;;5.40;;
11453;SDS011;5783;55.174;61.310;2022-07-29T06:04:35;8.20;;;5.13;;
11453;SDS011;5783;55.174;61.310;2022-07-29T06:07:05;10.70;;;5.47;;
11453;SDS011;5783;55.174;61.310;2022-07-29T06:09:34;9.43;;;5.40;;
11453;SDS011;5783;55.174;61.310;2022-07-29T06:12:04;12.83;;;5.37;;
11453;SDS011;5783;55.174;61.310;2022-07-29T06:14:33;10.73;;;5.67;;
11453;SDS011;5783;55.174;61.310;2022-07-29T06:17:04;12.37;;;5.30;;
11453;SDS011;5783;55.174;61.310;2022-07-29T06:22:22;13.57;;;5.63;;
11453;SDS011;5783;55.174;61.310;2022-07-29T06:24:51;11.50;;;4.80;;
11453;SDS011;5783;55.174;61.310;2022-07-29T06:27:20;8.17;;;4.70;;
11453;SDS011;5783;55.174;61.310;2022-07-29T06:29:51;9.27;;;4.30;;
11453;SDS011;5783;55.174;61.310;2022-07-29T06:32:20;10.37;;;4.37;;
11453;SDS011;5783;55.174;61.310;2022-07-29T06:34:49;7.43;;;4.07;;
11453;SDS011;5783;55.174;61.310;2022-07-29T06:37:19;8.23;;;3.87;;
11453;SDS011;5783;55.174;61.310;2022-07-29T06:39:48;5.30;;;3.60;;
11453;SDS011;5783;55.174;61.310;2022-07-29T06:42:19;7.47;;;3.80;;
11453;SDS011;5783;55.174;61.310;2022-07-29T06:44:48;6.63;;;4.00;;
11453;SDS011;5783;55.174;61.310;2022-07-29T06:47:17;8.37;;;4.00;;
11453;SDS011;5783;55.174;61.310;2022-07-29T06:49:46;7.80;;;4.00;;
11453;SDS011;5783;55.174;61.310;2022-07-29T06:52:15;7.80;;;4.40;;
11453;SDS011;5783;55.174;61.310;2022-07-29T06:54:44;7.00;;;4.17;;
11453;SDS011;5783;55.174;61.310;2022-07-29T06:57:15;7.90;;;4.10;;
11453;SDS011;5783;55.174;61.310;2022-07-29T06:59:44;7.07;;;4.00;;
11453;SDS011;5783;55.174;61.310;2022-07-29T07:02:13;7.10;;;3.50;;
11453;SDS011;5783;55.174;61.310;2022-07-29T07:04:44;7.63;;;4.17;;
11453;SDS011;5783;55.174;61.310;2022-07-29T07:07:13;8.17;;;4.43;;
11453;SDS011;5783;55.174;61.310;2022-07-29T07:09:43;7.70;;;4.10;;
11453;SDS011;5783;55.174;61.310;2022-07-29T07:12:13;8.83;;;5.60;;
11453;SDS011;5783;55.174;61.310;2022-07-29T07:14:42;6.43;;;4.57;;
11453;SDS011;5783;55.174;61.310;2022-07-29T07:17:11;6.50;;;3.97;;
11453;SDS011;5783;55.174;61.310;2022-07-29T07:19:41;8.00;;;4.07;;
11453;SDS011;5783;55.174;61.310;2022-07-29T07:22:11;9.97;;;4.20;;
11453;SDS011;5783;55.174;61.310;2022-07-29T07:24:40;8.13;;;4.60;;
11453;SDS011;5783;55.174;61.310;2022-07-29T07:27:09;7.90;;;4.27;;
11453;SDS011;5783;55.174;61.310;2022-07-29T07:29:38;7.23;;;4.57;;
11453;SDS011;5783;55.174;61.310;2022-07-29T07:32:08;7.83;;;3.87;;
11453;SDS011;5783;55.174;61.310;2022-07-29T07:34:38;5.90;;;4.07;;
11453;SDS011;5783;55.174;61.310;2022-07-29T07:37:08;9.97;;;4.83;;
11453;SDS011;5783;55.174;61.310;2022-07-29T07:39:38;7.90;;;4.20;;
11453;SDS011;5783;55.174;61.310;2022-07-29T07:42:07;7.47;;;4.10;;
11453;SDS011;5783;55.174;61.310;2022-07-29T07:47:09;6.90;;;4.10;;
11453;SDS011;5783;55.174;61.310;2022-07-29T07:49:38;5.10;;;4.23;;
11453;SDS011;5783;55.174;61.310;2022-07-29T07:52:07;9.93;;;4.73;;
11453;SDS011;5783;55.174;61.310;2022-07-29T07:54:37;7.33;;;4.77;;
11453;SDS011;5783;55.174;61.310;2022-07-29T07:57:06;6.40;;;4.60;;
11453;SDS011;5783;55.174;61.310;2022-07-29T07:59:35;7.83;;;5.47;;
11453;SDS011;5783;55.174;61.310;2022-07-29T08:02:04;12.67;;;5.97;;
11453;SDS011;5783;55.174;61.310;2022-07-29T08:04:33;11.43;;;5.60;;
11453;SDS011;5783;55.174;61.310;2022-07-29T08:07:04;13.20;;;5.07;;
11453;SDS011;5783;55.174;61.310;2022-07-29T08:09:34;9.23;;;4.80;;
11453;SDS011;5783;55.174;61.310;2022-07-29T08:12:04;8.63;;;5.57;;
11453;SDS011;5783;55.174;61.310;2022-07-29T08:14:33;8.00;;;4.80;;
11453;SDS011;5783;55.174;61.310;2022-07-29T08:17:02;9.30;;;4.57;;
11453;SDS011;5783;55.174;61.310;2022-07-29T08:19:32;7.17;;;4.63;;
11453;SDS011;5783;55.174;61.310;2022-07-29T08:22:02;11.60;;;5.30;;
11453;SDS011;5783;55.174;61.310;2022-07-29T08:24:31;8.20;;;4.73;;
11453;SDS011;5783;55.174;61.310;2022-07-29T08:27:20;12.93;;;5.20;;
11453;SDS011;5783;55.174;61.310;2022-07-29T08:29:49;10.60;;;4.83;;
11453;SDS011;5783;55.174;61.310;2022-07-29T08:32:19;10.50;;;4.83;;
11453;SDS011;5783;55.174;61.310;2022-07-29T08:34:48;7.80;;;4.30;;
11453;SDS011;5783;55.174;61.310;2022-07-29T08:37:17;6.73;;;4.30;;
11453;SDS011;5783;55.174;61.310;2022-07-29T08:39:46;7.87;;;4.30;;
11453;SDS011;5783;55.174;61.310;2022-07-29T08:42:16;10.30;;;4.80;;
11453;SDS011;5783;55.174;61.310;2022-07-29T08:44:45;16.83;;;6.53;;
11453;SDS011;5783;55.174;61.310;2022-07-29T08:47:16;13.63;;;6.43;;
11453;SDS011;5783;55.174;61.310;2022-07-29T08:49:46;9.77;;;5.27;;
11453;SDS011;5783;55.174;61.310;2022-07-29T08:52:15;10.73;;;5.30;;
11453;SDS011;5783;55.174;61.310;2022-07-29T08:54:45;9.50;;;5.43;;
11453;SDS011;5783;55.174;61.310;2022-07-29T08:57:16;10.70;;;5.10;;
11453;SDS011;5783;55.174;61.310;2022-07-29T08:59:46;8.77;;;4.43;;
11453;SDS011;5783;55.174;61.310;2022-07-29T09:02:19;9.27;;;4.80;;
11453;SDS011;5783;55.174;61.310;2022-07-29T09:04:50;8.47;;;4.97;;
11453;SDS011;5783;55.174;61.310;2022-07-29T09:07:19;6.50;;;3.90;;
11453;SDS011;5783;55.174;61.310;2022-07-29T09:09:48;5.97;;;3.90;;
11453;SDS011;5783;55.174;61.310;2022-07-29T09:12:18;9.60;;;4.70;;
11453;SDS011;5783;55.174;61.310;2022-07-29T09:14:48;8.80;;;4.40;;
11453;SDS011;5783;55.174;61.310;2022-07-29T09:17:17;7.40;;;4.10;;
11453;SDS011;5783;55.174;61.310;2022-07-29T09:19:48;9.47;;;4.37;;
11453;SDS011;5783;55.174;61.310;2022-07-29T09:22:28;10.87;;;4.10;;
11453;SDS011;5783;55.174;61.310;2022-07-29T09:24:50;8.87;;;4.20;;
11453;SDS011;5783;55.174;61.310;2022-07-29T09:27:21;6.80;;;3.70;;
11453;SDS011;5783;55.174;61.310;2022-07-29T09:30:13;5.57;;;4.07;;
11453;SDS011;5783;55.174;61.310;2022-07-29T09:35:31;6.23;;;3.40;;
11453;SDS011;5783;55.174;61.310;2022-07-29T09:43:39;6.40;;;3.53;;
11453;SDS011;5783;55.174;61.310;2022-07-29T09:46:11;5.73;;;3.50;;
11453;SDS011;5783;55.174;61.310;2022-07-29T09:48:41;11.17;;;4.03;;
11453;SDS011;5783;55.174;61.310;2022-07-29T09:53:59;8.13;;;4.47;;
11453;SDS011;5783;55.174;61.310;2022-07-29T09:59:19;8.90;;;3.90;;
11453;SDS011;5783;55.174;61.310;2022-07-29T10:01:50;6.37;;;3.73;;
11453;SDS011;5783;55.174;61.310;2022-07-29T10:04:20;5.87;;;4.07;;
11453;SDS011;5783;55.174;61.310;2022-07-29T10:09:38;11.83;;;4.67;;
11453;SDS011;5783;55.174;61.310;2022-07-29T10:12:10;5.60;;;4.05;;
11453;SDS011;5783;55.174;61.310;2022-07-29T10:14:41;9.90;;;3.97;;
11453;SDS011;5783;55.174;61.310;2022-07-29T10:17:11;5.63;;;3.80;;
11453;SDS011;5783;55.174;61.310;2022-07-29T10:19:40;7.57;;;3.70;;
11453;SDS011;5783;55.174;61.310;2022-07-29T10:22:09;7.37;;;3.43;;
11453;SDS011;5783;55.174;61.310;2022-07-29T10:24:39;5.70;;;3.23;;
11453;SDS011;5783;55.174;61.310;2022-07-29T10:27:08;4.97;;;3.80;;
11453;SDS011;5783;55.174;61.310;2022-07-29T10:29:38;8.33;;;3.53;;
11453;SDS011;5783;55.174;61.310;2022-07-29T10:32:10;6.80;;;3.50;;
11453;SDS011;5783;55.174;61.310;2022-07-29T10:41:32;10.33;;;5.10;;
11453;SDS011;5783;55.174;61.310;2022-07-29T10:44:43;7.70;;;4.30;;
11453;SDS011;5783;55.174;61.310;2022-07-29T10:46:59;10.25;;;5.00;;
11453;SDS011;5783;55.174;61.310;2022-07-29T10:49:28;7.50;;;4.50;;
11453;SDS011;5783;55.174;61.310;2022-07-29T10:54:48;21.93;;;6.27;;
11453;SDS011;5783;55.174;61.310;2022-07-29T11:02:58;9.70;;;4.43;;
11453;SDS011;5783;55.174;61.310;2022-07-29T11:05:28;7.40;;;3.37;;
11453;SDS011;5783;55.174;61.310;2022-07-29T11:13:55;7.07;;;3.20;;
11453;SDS011;5783;55.174;61.310;2022-07-29T11:16:25;9.65;;;3.20;;
11453;SDS011;5783;55.174;61.310;2022-07-29T11:21:47;8.43;;;4.00;;
11453;SDS011;5783;55.174;61.310;2022-07-29T11:29:59;6.67;;;3.50;;
11453;SDS011;5783;55.174;61.310;2022-07-29T11:44:06;6.47;;;3.33;;
11453;SDS011;5783;55.174;61.310;2022-07-29T11:49:25;5.90;;;3.10;;
11453;SDS011;5783;55.174;61.310;2022-07-29T11:51:56;8.20;;;3.20;;
11453;SDS011;5783;55.174;61.310;2022-07-29T11:57:19;6.20;;;3.45;;
11453;SDS011;5783;55.174;61.310;2022-07-29T11:59:48;7.65;;;2.80;;
11453;SDS011;5783;55.174;61.310;2022-07-29T12:02:17;6.23;;;3.00;;
11453;SDS011;5783;55.174;61.310;2022-07-29T12:07:38;7.47;;;3.50;;
11453;SDS011;5783;55.174;61.310;2022-07-29T12:10:08;7.25;;;3.70;;
11453;SDS011;5783;55.174;61.310;2022-07-29T12:12:38;12.40;;;4.73;;
11453;SDS011;5783;55.174;61.310;2022-07-29T12:17:56;10.50;;;4.60;;
11453;SDS011;5783;55.174;61.310;2022-07-29T12:20:26;9.80;;;4.50;;
11453;SDS011;5783;55.174;61.310;2022-07-29T12:22:58;9.37;;;4.20;;
11453;SDS011;5783;55.174;61.310;2022-07-29T12:25:32;8.70;;;4.00;;
11453;SDS011;5783;55.174;61.310;2022-07-29T12:28:22;14.07;;;4.40;;
11453;SDS011;5783;55.174;61.310;2022-07-29T12:30:52;7.10;;;4.40;;
11453;SDS011;5783;55.174;61.310;2022-07-29T12:33:26;11.90;;;5.40;;
11453;SDS011;5783;55.174;61.310;2022-07-29T12:38:29;11.97;;;6.07;;
11453;SDS011;5783;55.174;61.310;2022-07-29T12:40:58;11.43;;;5.10;;
11453;SDS011;5783;55.174;61.310;2022-07-29T12:43:29;11.17;;;5.30;;
11453;SDS011;5783;55.174;61.310;2022-07-29T12:46:10;10.70;;;5.95;;
11453;SDS011;5783;55.174;61.310;2022-07-29T12:51:39;14.70;;;6.00;;
11453;SDS011;5783;55.174;61.310;2022-07-29T12:54:09;8.73;;;5.20;;
11453;SDS011;5783;55.174;61.310;2022-07-29T12:56:40;11.50;;;5.50;;
11453;SDS011;5783;55.174;61.310;2022-07-29T13:01:59;11.30;;;5.37;;
11453;SDS011;5783;55.174;61.310;2022-07-29T13:04:29;10.50;;;5.30;;
11453;SDS011;5783;55.174;61.310;2022-07-29T13:07:03;8.65;;;4.75;;
11453;SDS011;5783;55.174;61.310;2022-07-29T13:12:22;11.80;;;5.50;;
11453;SDS011;5783;55.174;61.310;2022-07-29T13:14:52;13.00;;;5.90;;
11453;SDS011;5783;55.174;61.310;2022-07-29T13:17:21;16.80;;;6.23;;
11453;SDS011;5783;55.174;61.310;2022-07-29T13:22:41;11.85;;;5.60;;
11453;SDS011;5783;55.174;61.310;2022-07-29T13:25:11;9.20;;;5.50;;
11453;SDS011;5783;55.174;61.310;2022-07-29T13:27:40;12.57;;;6.03;;
11453;SDS011;5783;55.174;61.310;2022-07-29T13:30:11;10.80;;;5.03;;
11453;SDS011;5783;55.174;61.310;2022-07-29T13:32:40;10.57;;;4.80;;
11453;SDS011;5783;55.174;61.310;2022-07-29T13:35:10;9.30;;;4.60;;
11453;SDS011;5783;55.174;61.310;2022-07-29T13:37:39;9.00;;;4.50;;
11453;SDS011;5783;55.174;61.310;2022-07-29T13:40:09;10.10;;;3.90;;
11453;SDS011;5783;55.174;61.310;2022-07-29T13:42:40;8.50;;;4.00;;
11453;SDS011;5783;55.174;61.310;2022-07-29T13:47:38;10.60;;;4.25;;
11453;SDS011;5783;55.174;61.310;2022-07-29T13:50:08;7.57;;;4.93;;
11453;SDS011;5783;55.174;61.310;2022-07-29T13:52:37;13.15;;;6.00;;
11453;SDS011;5783;55.174;61.310;2022-07-29T13:55:07;13.33;;;5.83;;
11453;SDS011;5783;55.174;61.310;2022-07-29T13:57:37;12.23;;;5.30;;
11453;SDS011;5783;55.174;61.310;2022-07-29T14:00:07;11.23;;;4.90;;
11453;SDS011;5783;55.174;61.310;2022-07-29T14:02:37;7.17;;;4.77;;
11453;SDS011;5783;55.174;61.310;2022-07-29T14:05:06;9.47;;;4.47;;
11453;SDS011;5783;55.174;61.310;2022-07-29T14:07:36;8.40;;;4.40;;
11453;SDS011;5783;55.174;61.310;2022-07-29T14:10:06;8.53;;;4.40;;
11453;SDS011;5783;55.174;61.310;2022-07-29T14:12:38;10.20;;;4.80;;
11453;SDS011;5783;55.174;61.310;2022-07-29T14:15:08;8.40;;;4.80;;
11453;SDS011;5783;55.174;61.310;2022-07-29T14:17:37;13.03;;;4.90;;
11453;SDS011;5783;55.174;61.310;2022-07-29T14:20:06;7.50;;;4.00;;
11453;SDS011;5783;55.174;61.310;2022-07-29T14:22:36;6.90;;;4.17;;
11453;SDS011;5783;55.174;61.310;2022-07-29T14:25:07;8.07;;;4.43;;
11453;SDS011;5783;55.174;61.310;2022-07-29T14:27:37;9.97;;;4.43;;
11453;SDS011;5783;55.174;61.310;2022-07-29T14:30:06;8.90;;;4.47;;
11453;SDS011;5783;55.174;61.310;2022-07-29T14:32:36;8.30;;;4.37;;
11453;SDS011;5783;55.174;61.310;2022-07-29T14:35:05;6.67;;;3.90;;
11453;SDS011;5783;55.174;61.310;2022-07-29T14:37:35;8.20;;;4.43;;
11453;SDS011;5783;55.174;61.310;2022-07-29T14:40:04;10.67;;;4.23;;
11453;SDS011;5783;55.174;61.310;2022-07-29T14:42:35;8.90;;;4.83;;
11453;SDS011;5783;55.174;61.310;2022-07-29T14:45:05;9.10;;;5.17;;
11453;SDS011;5783;55.174;61.310;2022-07-29T14:47:35;12.93;;;5.67;;
11453;SDS011;5783;55.174;61.310;2022-07-29T14:50:06;10.53;;;4.50;;
11453;SDS011;5783;55.174;61.310;2022-07-29T14:52:36;9.73;;;4.50;;
11453;SDS011;5783;55.174;61.310;2022-07-29T14:55:05;10.90;;;5.10;;
11453;SDS011;5783;55.174;61.310;2022-07-29T14:57:35;10.73;;;4.47;;
11453;SDS011;5783;55.174;61.310;2022-07-29T15:00:04;11.43;;;4.20;;
11453;SDS011;5783;55.174;61.310;2022-07-29T15:02:35;5.83;;;3.70;;
11453;SDS011;5783;55.174;61.310;2022-07-29T15:05:04;8.23;;;4.30;;
11453;SDS011;5783;55.174;61.310;2022-07-29T15:07:34;12.10;;;4.67;;
11453;SDS011;5783;55.174;61.310;2022-07-29T15:10:03;4.70;;;3.73;;
11453;SDS011;5783;55.174;61.310;2022-07-29T15:12:32;10.70;;;4.17;;
11453;SDS011;5783;55.174;61.310;2022-07-29T15:15:01;6.65;;;3.90;;
11453;SDS011;5783;55.174;61.310;2022-07-29T15:17:33;9.77;;;3.97;;
11453;SDS011;5783;55.174;61.310;2022-07-29T15:20:02;6.80;;;4.00;;
11453;SDS011;5783;55.174;61.310;2022-07-29T15:22:32;6.60;;;3.70;;
11453;SDS011;5783;55.174;61.310;2022-07-29T15:25:03;7.83;;;3.73;;
11453;SDS011;5783;55.174;61.310;2022-07-29T15:27:33;4.80;;;3.50;;
11453;SDS011;5783;55.174;61.310;2022-07-29T15:30:02;8.63;;;3.50;;
11453;SDS011;5783;55.174;61.310;2022-07-29T15:32:32;5.77;;;3.33;;
11453;SDS011;5783;55.174;61.310;2022-07-29T15:35:01;6.07;;;3.87;;
11453;SDS011;5783;55.174;61.310;2022-07-29T15:37:30;7.33;;;3.50;;
11453;SDS011;5783;55.174;61.310;2022-07-29T15:40:00;4.60;;;3.40;;
11453;SDS011;5783;55.174;61.310;2022-07-29T15:42:30;5.90;;;3.47;;
11453;SDS011;5783;55.174;61.310;2022-07-29T15:44:59;5.43;;;3.57;;
11453;SDS011;5783;55.174;61.310;2022-07-29T15:47:30;5.93;;;3.60;;
11453;SDS011;5783;55.174;61.310;2022-07-29T15:49:59;7.15;;;3.40;;
11453;SDS011;5783;55.174;61.310;2022-07-29T15:52:30;5.50;;;3.50;;
11453;SDS011;5783;55.174;61.310;2022-07-29T15:54:59;4.93;;;3.43;;
11453;SDS011;5783;55.174;61.310;2022-07-29T15:57:30;6.03;;;3.50;;
11453;SDS011;5783;55.174;61.310;2022-07-29T15:59:59;6.20;;;3.30;;
11453;SDS011;5783;55.174;61.310;2022-07-29T16:02:30;6.87;;;3.37;;
11453;SDS011;5783;55.174;61.310;2022-07-29T16:04:59;5.40;;;3.80;;
11453;SDS011;5783;55.174;61.310;2022-07-29T16:07:30;7.30;;;3.55;;
11453;SDS011;5783;55.174;61.310;2022-07-29T16:09:59;8.90;;;4.10;;
11453;SDS011;5783;55.174;61.310;2022-07-29T16:12:32;6.83;;;3.70;;
11453;SDS011;5783;55.174;61.310;2022-07-29T16:15:01;6.50;;;3.90;;
11453;SDS011;5783;55.174;61.310;2022-07-29T16:17:32;7.03;;;3.50;;
11453;SDS011;5783;55.174;61.310;2022-07-29T16:20:01;5.87;;;3.67;;
11453;SDS011;5783;55.174;61.310;2022-07-29T16:22:31;5.43;;;3.10;;
11453;SDS011;5783;55.174;61.310;2022-07-29T16:25:00;5.03;;;3.30;;
11453;SDS011;5783;55.174;61.310;2022-07-29T16:27:30;4.10;;;3.30;;
11453;SDS011;5783;55.174;61.310;2022-07-29T16:29:59;5.17;;;3.43;;
11453;SDS011;5783;55.174;61.310;2022-07-29T16:32:30;6.77;;;3.67;;
11453;SDS011;5783;55.174;61.310;2022-07-29T16:34:59;6.13;;;3.83;;
11453;SDS011;5783;55.174;61.310;2022-07-29T16:37:30;5.53;;;3.60;;
11453;SDS011;5783;55.174;61.310;2022-07-29T16:40:02;6.67;;;4.17;;
11453;SDS011;5783;55.174;61.310;2022-07-29T16:42:32;6.13;;;3.90;;
11453;SDS011;5783;55.174;61.310;2022-07-29T16:45:03;6.37;;;4.37;;
11453;SDS011;5783;55.174;61.310;2022-07-29T16:47:32;5.93;;;4.03;;
11453;SDS011;5783;55.174;61.310;2022-07-29T16:50:01;9.33;;;4.70;;
11453;SDS011;5783;55.174;61.310;2022-07-29T16:52:31;8.63;;;4.63;;
11453;SDS011;5783;55.174;61.310;2022-07-29T16:55:00;8.93;;;4.50;;
11453;SDS011;5783;55.174;61.310;2022-07-29T16:57:30;7.23;;;4.70;;
11453;SDS011;5783;55.174;61.310;2022-07-29T16:59:59;7.77;;;4.67;;
11453;SDS011;5783;55.174;61.310;2022-07-29T17:02:30;6.65;;;4.10;;
11453;SDS011;5783;55.174;61.310;2022-07-29T17:04:59;8.10;;;4.70;;
11453;SDS011;5783;55.174;61.310;2022-07-29T17:07:28;8.10;;;4.27;;